sensor_id;sensor_type;location;lat;lon;timestamp;temperature;humidity
9371;DHT22;4725;48.384;8.984;2023-12-22T00:01:16;5.90;99.90
9371;DHT22;4725;48.384;8.984;2023-12-22T00:03:43;6.00;99.90
9371;DHT22;4725;48.384;8.984;2023-12-22T00:06:11;5.90;99.90
9371;DHT22;4725;48.384;8.984;2023-12-22T00:08:38;5.80;99.90
9371;DHT22;4725;48.384;8.984;2023-12-22T00:11:06;5.80;99.90
9371;DHT22;4725;48.384;8.984;2023-12-22T00:13:33;5.80;99.90
9371;DHT22;4725;48.384;8.984;2023-12-22T00:16:00;5.70;99.90
9371;DHT22;4725;48.384;8.984;2023-12-22T00:18:27;5.80;99.90
9371;DHT22;4725;48.384;8.984;2023-12-22T00:20:54;5.80;99.90
9371;DHT22;4725;48.384;8.984;2023-12-22T00:23:21;5.80;99.90
9371;DHT22;4725;48.384;8.984;2023-12-22T00:25:48;5.80;99.90
9371;DHT22;4725;48.384;8.984;2023-12-22T00:28:16;5.80;99.90
9371;DHT22;4725;48.384;8.984;2023-12-22T00:30:43;5.70;99.90
9371;DHT22;4725;48.384;8.984;2023-12-22T00:33:10;5.70;99.90
9371;DHT22;4725;48.384;8.984;2023-12-22T00:35:37;5.70;99.90
9371;DHT22;4725;48.384;8.984;2023-12-22T00:38:04;5.70;99.90
9371;DHT22;4725;48.384;8.984;2023-12-22T00:40:30;5.70;99.90
9371;DHT22;4725;48.384;8.984;2023-12-22T00:42:57;5.70;99.90
9371;DHT22;4725;48.384;8.984;2023-12-22T00:45:25;5.70;99.90
9371;DHT22;4725;48.384;8.984;2023-12-22T00:47:52;5.70;99.90
9371;DHT22;4725;48.384;8.984;2023-12-22T00:50:19;5.70;99.90
9371;DHT22;4725;48.384;8.984;2023-12-22T00:52:46;5.70;99.90
9371;DHT22;4725;48.384;8.984;2023-12-22T00:55:13;5.80;99.90
9371;DHT22;4725;48.384;8.984;2023-12-22T00:57:40;5.80;99.90
9371;DHT22;4725;48.384;8.984;2023-12-22T01:00:09;5.70;99.90
9371;DHT22;4725;48.384;8.984;2023-12-22T01:02:39;5.70;99.90
9371;DHT22;4725;48.384;8.984;2023-12-22T01:05:06;5.70;99.90
9371;DHT22;4725;48.384;8.984;2023-12-22T01:07:33;5.60;99.90
9371;DHT22;4725;48.384;8.984;2023-12-22T01:10:00;5.60;99.90
9371;DHT22;4725;48.384;8.984;2023-12-22T01:12:27;5.50;99.90
9371;DHT22;4725;48.384;8.984;2023-12-22T01:14:54;5.50;99.90
9371;DHT22;4725;48.384;8.984;2023-12-22T01:17:21;5.40;99.90
9371;DHT22;4725;48.384;8.984;2023-12-22T01:19:49;5.30;99.90
9371;DHT22;4725;48.384;8.984;2023-12-22T01:22:16;5.40;99.90
9371;DHT22;4725;48.384;8.984;2023-12-22T01:24:43;5.30;99.90
9371;DHT22;4725;48.384;8.984;2023-12-22T01:27:11;5.30;99.90
9371;DHT22;4725;48.384;8.984;2023-12-22T01:29:38;5.30;99.90
9371;DHT22;4725;48.384;8.984;2023-12-22T01:32:05;5.30;99.90
9371;DHT22;4725;48.384;8.984;2023-12-22T01:34:32;5.30;99.90
9371;DHT22;4725;48.384;8.984;2023-12-22T01:37:00;5.30;99.90
9371;DHT22;4725;48.384;8.984;2023-12-22T01:39:27;5.20;99.90
9371;DHT22;4725;48.384;8.984;2023-12-22T01:41:54;5.20;99.90
9371;DHT22;4725;48.384;8.984;2023-12-22T01:44:21;5.20;99.90
9371;DHT22;4725;48.384;8.984;2023-12-22T01:46:49;5.30;99.90
9371;DHT22;4725;48.384;8.984;2023-12-22T01:49:16;5.30;99.90
9371;DHT22;4725;48.384;8.984;2023-12-22T01:51:43;5.30;99.90
9371;DHT22;4725;48.384;8.984;2023-12-22T01:54:14;5.30;99.90
9371;DHT22;4725;48.384;8.984;2023-12-22T01:56:42;5.30;99.90
9371;DHT22;4725;48.384;8.984;2023-12-22T01:59:09;5.20;99.90
9371;DHT22;4725;48.384;8.984;2023-12-22T02:01:37;5.20;99.90
9371;DHT22;4725;48.384;8.984;2023-12-22T02:04:03;5.30;99.90
9371;DHT22;4725;48.384;8.984;2023-12-22T02:06:31;5.30;99.90
9371;DHT22;4725;48.384;8.984;2023-12-22T02:09:01;5.40;99.90
9371;DHT22;4725;48.384;8.984;2023-12-22T02:11:30;5.30;99.90
9371;DHT22;4725;48.384;8.984;2023-12-22T02:13:57;5.30;99.90
9371;DHT22;4725;48.384;8.984;2023-12-22T02:16:31;5.30;99.90
9371;DHT22;4725;48.384;8.984;2023-12-22T02:19:04;5.20;99.90
9371;DHT22;4725;48.384;8.984;2023-12-22T02:21:36;5.30;99.90
9371;DHT22;4725;48.384;8.984;2023-12-22T02:24:05;5.20;99.90
9371;DHT22;4725;48.384;8.984;2023-12-22T02:26:35;5.20;99.90
9371;DHT22;4725;48.384;8.984;2023-12-22T02:29:08;5.10;99.90
9371;DHT22;4725;48.384;8.984;2023-12-22T02:31:37;5.10;99.90
9371;DHT22;4725;48.384;8.984;2023-12-22T02:34:13;5.10;99.90
9371;DHT22;4725;48.384;8.984;2023-12-22T02:36:41;5.00;99.90
9371;DHT22;4725;48.384;8.984;2023-12-22T02:39:10;5.10;99.90
9371;DHT22;4725;48.384;8.984;2023-12-22T02:41:38;5.10;99.90
9371;DHT22;4725;48.384;8.984;2023-12-22T02:44:05;5.00;99.90
9371;DHT22;4725;48.384;8.984;2023-12-22T02:46:34;5.20;99.90
9371;DHT22;4725;48.384;8.984;2023-12-22T02:49:00;5.10;99.90
9371;DHT22;4725;48.384;8.984;2023-12-22T02:51:28;5.10;99.90
9371;DHT22;4725;48.384;8.984;2023-12-22T02:53:55;5.10;99.90
9371;DHT22;4725;48.384;8.984;2023-12-22T02:56:23;2.80;99.90
9371;DHT22;4725;48.384;8.984;2023-12-22T02:58:50;5.10;99.90
9371;DHT22;4725;48.384;8.984;2023-12-22T03:01:16;4.70;99.90
9371;DHT22;4725;48.384;8.984;2023-12-22T03:03:43;5.10;99.90
9371;DHT22;4725;48.384;8.984;2023-12-22T03:06:09;5.00;99.90
9371;DHT22;4725;48.384;8.984;2023-12-22T03:08:36;5.00;99.90
9371;DHT22;4725;48.384;8.984;2023-12-22T03:11:03;5.00;99.90
9371;DHT22;4725;48.384;8.984;2023-12-22T03:13:31;5.00;99.90
9371;DHT22;4725;48.384;8.984;2023-12-22T03:15:58;4.80;99.90
9371;DHT22;4725;48.384;8.984;2023-12-22T03:20:52;4.90;99.90
9371;DHT22;4725;48.384;8.984;2023-12-22T03:23:19;5.60;99.90
9371;DHT22;4725;48.384;8.984;2023-12-22T03:25:45;4.80;99.90
9371;DHT22;4725;48.384;8.984;2023-12-22T03:28:12;4.80;99.90
9371;DHT22;4725;48.384;8.984;2023-12-22T03:30:40;4.60;99.90
9371;DHT22;4725;48.384;8.984;2023-12-22T03:33:07;4.60;99.90
9371;DHT22;4725;48.384;8.984;2023-12-22T03:38:01;4.40;99.90
9371;DHT22;4725;48.384;8.984;2023-12-22T03:40:28;4.40;99.90
9371;DHT22;4725;48.384;8.984;2023-12-22T03:42:56;4.50;99.90
9371;DHT22;4725;48.384;8.984;2023-12-22T03:45:22;4.50;99.90
9371;DHT22;4725;48.384;8.984;2023-12-22T03:47:51;4.50;99.90
9371;DHT22;4725;48.384;8.984;2023-12-22T03:50:17;4.50;99.90
9371;DHT22;4725;48.384;8.984;2023-12-22T03:52:44;4.50;99.90
9371;DHT22;4725;48.384;8.984;2023-12-22T03:55:11;4.50;99.90
9371;DHT22;4725;48.384;8.984;2023-12-22T03:57:38;4.50;99.90
9371;DHT22;4725;48.384;8.984;2023-12-22T04:00:06;4.50;99.90
9371;DHT22;4725;48.384;8.984;2023-12-22T04:02:33;4.60;99.90
9371;DHT22;4725;48.384;8.984;2023-12-22T04:05:01;4.70;99.90
9371;DHT22;4725;48.384;8.984;2023-12-22T04:07:29;4.60;99.90
9371;DHT22;4725;48.384;8.984;2023-12-22T04:09:56;4.60;99.90
9371;DHT22;4725;48.384;8.984;2023-12-22T04:12:23;4.70;99.90
9371;DHT22;4725;48.384;8.984;2023-12-22T04:14:50;4.80;99.90
9371;DHT22;4725;48.384;8.984;2023-12-22T04:17:17;4.80;99.90
9371;DHT22;4725;48.384;8.984;2023-12-22T04:19:44;4.90;99.90
9371;DHT22;4725;48.384;8.984;2023-12-22T04:22:12;4.90;99.90
9371;DHT22;4725;48.384;8.984;2023-12-22T04:24:39;4.90;99.90
9371;DHT22;4725;48.384;8.984;2023-12-22T04:27:06;4.80;99.90
9371;DHT22;4725;48.384;8.984;2023-12-22T04:29:33;4.80;99.90
9371;DHT22;4725;48.384;8.984;2023-12-22T04:31:59;4.70;99.90
9371;DHT22;4725;48.384;8.984;2023-12-22T04:34:26;4.70;99.90
9371;DHT22;4725;48.384;8.984;2023-12-22T04:36:53;4.70;99.90
9371;DHT22;4725;48.384;8.984;2023-12-22T04:39:21;4.70;99.90
9371;DHT22;4725;48.384;8.984;2023-12-22T04:41:48;4.70;99.90
9371;DHT22;4725;48.384;8.984;2023-12-22T04:44:15;4.70;99.90
9371;DHT22;4725;48.384;8.984;2023-12-22T04:46:42;4.60;99.90
9371;DHT22;4725;48.384;8.984;2023-12-22T04:49:08;4.60;99.90
9371;DHT22;4725;48.384;8.984;2023-12-22T04:51:35;4.50;99.90
9371;DHT22;4725;48.384;8.984;2023-12-22T04:54:02;4.60;99.90
9371;DHT22;4725;48.384;8.984;2023-12-22T04:56:31;4.60;99.90
9371;DHT22;4725;48.384;8.984;2023-12-22T04:58:58;4.60;99.90
9371;DHT22;4725;48.384;8.984;2023-12-22T05:01:25;4.60;99.90
9371;DHT22;4725;48.384;8.984;2023-12-22T05:03:51;4.60;99.90
9371;DHT22;4725;48.384;8.984;2023-12-22T05:06:19;4.60;99.90
9371;DHT22;4725;48.384;8.984;2023-12-22T05:08:46;4.60;99.90
9371;DHT22;4725;48.384;8.984;2023-12-22T05:11:13;4.60;99.90
9371;DHT22;4725;48.384;8.984;2023-12-22T05:13:41;4.60;99.90
9371;DHT22;4725;48.384;8.984;2023-12-22T05:16:10;4.70;99.90
9371;DHT22;4725;48.384;8.984;2023-12-22T05:18:37;4.60;99.90
9371;DHT22;4725;48.384;8.984;2023-12-22T05:21:04;4.60;99.90
9371;DHT22;4725;48.384;8.984;2023-12-22T05:23:31;4.80;99.90
9371;DHT22;4725;48.384;8.984;2023-12-22T05:25:58;4.70;99.90
9371;DHT22;4725;48.384;8.984;2023-12-22T05:28:25;4.80;99.90
9371;DHT22;4725;48.384;8.984;2023-12-22T05:30:53;4.70;99.90
9371;DHT22;4725;48.384;8.984;2023-12-22T05:33:20;4.70;99.90
9371;DHT22;4725;48.384;8.984;2023-12-22T05:35:46;4.80;99.90
9371;DHT22;4725;48.384;8.984;2023-12-22T05:38:13;4.80;99.90
9371;DHT22;4725;48.384;8.984;2023-12-22T05:40:40;4.80;99.90
9371;DHT22;4725;48.384;8.984;2023-12-22T05:43:07;4.80;99.90
9371;DHT22;4725;48.384;8.984;2023-12-22T05:45:34;4.90;99.90
9371;DHT22;4725;48.384;8.984;2023-12-22T05:48:02;4.90;99.90
9371;DHT22;4725;48.384;8.984;2023-12-22T05:50:29;4.90;99.90
9371;DHT22;4725;48.384;8.984;2023-12-22T05:52:56;4.90;99.90
9371;DHT22;4725;48.384;8.984;2023-12-22T05:55:23;4.90;99.90
9371;DHT22;4725;48.384;8.984;2023-12-22T05:57:50;4.90;99.90
9371;DHT22;4725;48.384;8.984;2023-12-22T06:00:17;4.90;99.90
9371;DHT22;4725;48.384;8.984;2023-12-22T06:02:44;4.80;99.90
9371;DHT22;4725;48.384;8.984;2023-12-22T06:05:12;4.80;99.90
9371;DHT22;4725;48.384;8.984;2023-12-22T06:07:39;4.90;99.90
9371;DHT22;4725;48.384;8.984;2023-12-22T06:10:07;4.80;99.90
9371;DHT22;4725;48.384;8.984;2023-12-22T06:12:34;4.70;99.90
9371;DHT22;4725;48.384;8.984;2023-12-22T06:15:01;4.80;99.90
9371;DHT22;4725;48.384;8.984;2023-12-22T06:17:28;4.80;99.90
9371;DHT22;4725;48.384;8.984;2023-12-22T06:19:55;4.80;99.90
9371;DHT22;4725;48.384;8.984;2023-12-22T06:22:23;4.80;99.90
9371;DHT22;4725;48.384;8.984;2023-12-22T06:24:50;4.90;99.90
9371;DHT22;4725;48.384;8.984;2023-12-22T06:27:17;4.90;99.90
9371;DHT22;4725;48.384;8.984;2023-12-22T06:29:44;5.00;99.90
9371;DHT22;4725;48.384;8.984;2023-12-22T06:32:11;4.90;99.90
9371;DHT22;4725;48.384;8.984;2023-12-22T06:34:37;4.90;99.90
9371;DHT22;4725;48.384;8.984;2023-12-22T06:37:04;5.00;99.90
9371;DHT22;4725;48.384;8.984;2023-12-22T06:39:34;5.00;99.90
9371;DHT22;4725;48.384;8.984;2023-12-22T06:42:01;5.00;99.90
9371;DHT22;4725;48.384;8.984;2023-12-22T06:44:29;5.00;99.90
9371;DHT22;4725;48.384;8.984;2023-12-22T06:46:57;5.00;99.90
9371;DHT22;4725;48.384;8.984;2023-12-22T06:49:23;5.00;99.90
9371;DHT22;4725;48.384;8.984;2023-12-22T06:51:51;5.00;99.90
9371;DHT22;4725;48.384;8.984;2023-12-22T06:54:17;5.00;99.90
9371;DHT22;4725;48.384;8.984;2023-12-22T06:56:46;5.00;99.90
9371;DHT22;4725;48.384;8.984;2023-12-22T06:59:11;4.90;99.90
9371;DHT22;4725;48.384;8.984;2023-12-22T07:01:38;4.90;99.90
9371;DHT22;4725;48.384;8.984;2023-12-22T07:04:05;4.90;99.90
9371;DHT22;4725;48.384;8.984;2023-12-22T07:06:33;4.90;99.90
9371;DHT22;4725;48.384;8.984;2023-12-22T07:09:31;4.90;99.90
9371;DHT22;4725;48.384;8.984;2023-12-22T07:11:59;4.80;99.90
9371;DHT22;4725;48.384;8.984;2023-12-22T07:14:27;4.90;99.90
9371;DHT22;4725;48.384;8.984;2023-12-22T07:16:53;4.90;99.90
9371;DHT22;4725;48.384;8.984;2023-12-22T07:19:20;4.80;99.90
9371;DHT22;4725;48.384;8.984;2023-12-22T07:21:48;4.80;99.90
9371;DHT22;4725;48.384;8.984;2023-12-22T07:24:15;4.80;99.90
9371;DHT22;4725;48.384;8.984;2023-12-22T07:26:41;4.90;99.90
9371;DHT22;4725;48.384;8.984;2023-12-22T07:29:11;5.00;99.90
9371;DHT22;4725;48.384;8.984;2023-12-22T07:31:38;5.00;99.90
9371;DHT22;4725;48.384;8.984;2023-12-22T07:34:05;4.90;99.90
9371;DHT22;4725;48.384;8.984;2023-12-22T07:36:32;4.90;99.90
9371;DHT22;4725;48.384;8.984;2023-12-22T07:38:58;5.00;99.90
9371;DHT22;4725;48.384;8.984;2023-12-22T07:41:26;5.00;99.90
9371;DHT22;4725;48.384;8.984;2023-12-22T07:43:53;4.90;99.90
9371;DHT22;4725;48.384;8.984;2023-12-22T07:46:21;5.00;99.90
9371;DHT22;4725;48.384;8.984;2023-12-22T07:48:48;4.90;99.90
9371;DHT22;4725;48.384;8.984;2023-12-22T07:51:16;4.90;99.90
9371;DHT22;4725;48.384;8.984;2023-12-22T07:53:42;4.90;99.90
9371;DHT22;4725;48.384;8.984;2023-12-22T07:56:09;4.90;99.90
9371;DHT22;4725;48.384;8.984;2023-12-22T07:58:37;4.80;99.90
9371;DHT22;4725;48.384;8.984;2023-12-22T08:01:04;4.80;99.90
9371;DHT22;4725;48.384;8.984;2023-12-22T08:03:33;4.90;99.90
9371;DHT22;4725;48.384;8.984;2023-12-22T08:06:00;4.80;99.90
9371;DHT22;4725;48.384;8.984;2023-12-22T08:08:27;4.80;99.90
9371;DHT22;4725;48.384;8.984;2023-12-22T08:10:54;4.80;99.90
9371;DHT22;4725;48.384;8.984;2023-12-22T08:13:21;4.90;99.90
9371;DHT22;4725;48.384;8.984;2023-12-22T08:15:48;4.90;99.90
9371;DHT22;4725;48.384;8.984;2023-12-22T08:18:14;5.00;99.90
9371;DHT22;4725;48.384;8.984;2023-12-22T08:20:43;5.00;99.90
9371;DHT22;4725;48.384;8.984;2023-12-22T08:25:37;5.00;99.90
9371;DHT22;4725;48.384;8.984;2023-12-22T08:28:05;5.00;99.90
9371;DHT22;4725;48.384;8.984;2023-12-22T08:30:32;5.10;99.90
9371;DHT22;4725;48.384;8.984;2023-12-22T08:33:00;5.10;99.90
9371;DHT22;4725;48.384;8.984;2023-12-22T08:35:27;5.10;99.90
9371;DHT22;4725;48.384;8.984;2023-12-22T08:37:55;5.00;99.90
9371;DHT22;4725;48.384;8.984;2023-12-22T08:40:23;5.00;99.90
9371;DHT22;4725;48.384;8.984;2023-12-22T08:42:51;5.00;99.90
9371;DHT22;4725;48.384;8.984;2023-12-22T08:45:20;5.00;99.90
9371;DHT22;4725;48.384;8.984;2023-12-22T08:47:47;4.90;99.90
9371;DHT22;4725;48.384;8.984;2023-12-22T08:50:14;4.90;99.90
9371;DHT22;4725;48.384;8.984;2023-12-22T08:52:41;4.90;99.90
9371;DHT22;4725;48.384;8.984;2023-12-22T08:55:09;4.90;99.90
9371;DHT22;4725;48.384;8.984;2023-12-22T08:57:36;4.90;99.90
9371;DHT22;4725;48.384;8.984;2023-12-22T09:00:03;4.90;99.90
9371;DHT22;4725;48.384;8.984;2023-12-22T09:02:30;4.90;99.90
9371;DHT22;4725;48.384;8.984;2023-12-22T09:04:57;4.90;99.90
9371;DHT22;4725;48.384;8.984;2023-12-22T09:07:24;5.00;99.90
9371;DHT22;4725;48.384;8.984;2023-12-22T09:09:51;4.90;99.90
9371;DHT22;4725;48.384;8.984;2023-12-22T09:12:19;5.00;99.90
9371;DHT22;4725;48.384;8.984;2023-12-22T09:14:46;5.00;99.90
9371;DHT22;4725;48.384;8.984;2023-12-22T09:17:13;5.00;99.90
9371;DHT22;4725;48.384;8.984;2023-12-22T09:19:39;4.90;99.90
9371;DHT22;4725;48.384;8.984;2023-12-22T09:22:08;4.90;99.90
9371;DHT22;4725;48.384;8.984;2023-12-22T09:24:35;5.00;99.90
9371;DHT22;4725;48.384;8.984;2023-12-22T09:27:02;5.00;99.90
9371;DHT22;4725;48.384;8.984;2023-12-22T09:29:31;4.90;99.90
9371;DHT22;4725;48.384;8.984;2023-12-22T09:31:59;5.00;99.90
9371;DHT22;4725;48.384;8.984;2023-12-22T09:34:26;4.90;99.90
9371;DHT22;4725;48.384;8.984;2023-12-22T09:36:53;5.10;99.90
9371;DHT22;4725;48.384;8.984;2023-12-22T09:39:20;5.10;99.90
9371;DHT22;4725;48.384;8.984;2023-12-22T09:41:49;5.00;99.90
9371;DHT22;4725;48.384;8.984;2023-12-22T09:44:19;5.10;99.90
9371;DHT22;4725;48.384;8.984;2023-12-22T09:46:48;5.10;99.90
9371;DHT22;4725;48.384;8.984;2023-12-22T09:49:16;5.10;99.90
9371;DHT22;4725;48.384;8.984;2023-12-22T09:51:44;5.10;99.90
9371;DHT22;4725;48.384;8.984;2023-12-22T09:54:12;5.10;99.90
9371;DHT22;4725;48.384;8.984;2023-12-22T09:56:40;5.10;99.90
9371;DHT22;4725;48.384;8.984;2023-12-22T09:59:10;5.10;99.90
9371;DHT22;4725;48.384;8.984;2023-12-22T10:01:40;5.10;99.90
9371;DHT22;4725;48.384;8.984;2023-12-22T10:04:10;5.00;99.90
9371;DHT22;4725;48.384;8.984;2023-12-22T10:06:37;5.00;99.90
9371;DHT22;4725;48.384;8.984;2023-12-22T10:09:05;5.10;99.90
9371;DHT22;4725;48.384;8.984;2023-12-22T10:11:34;5.10;99.90
9371;DHT22;4725;48.384;8.984;2023-12-22T10:14:02;5.10;99.90
9371;DHT22;4725;48.384;8.984;2023-12-22T10:16:30;5.00;99.90
9371;DHT22;4725;48.384;8.984;2023-12-22T10:18:58;5.10;99.90
9371;DHT22;4725;48.384;8.984;2023-12-22T10:21:27;5.10;99.90
9371;DHT22;4725;48.384;8.984;2023-12-22T10:23:56;5.10;99.90
9371;DHT22;4725;48.384;8.984;2023-12-22T10:26:23;5.10;99.90
9371;DHT22;4725;48.384;8.984;2023-12-22T10:28:50;5.10;99.90
9371;DHT22;4725;48.384;8.984;2023-12-22T10:31:17;5.10;99.90
9371;DHT22;4725;48.384;8.984;2023-12-22T10:33:44;5.20;99.90
9371;DHT22;4725;48.384;8.984;2023-12-22T10:36:11;5.20;99.90
9371;DHT22;4725;48.384;8.984;2023-12-22T10:38:39;5.10;99.90
9371;DHT22;4725;48.384;8.984;2023-12-22T10:41:08;5.10;99.90
9371;DHT22;4725;48.384;8.984;2023-12-22T10:43:38;5.20;99.90
9371;DHT22;4725;48.384;8.984;2023-12-22T10:46:06;5.10;99.90
9371;DHT22;4725;48.384;8.984;2023-12-22T10:48:33;5.20;99.90
9371;DHT22;4725;48.384;8.984;2023-12-22T10:51:00;5.20;99.90
9371;DHT22;4725;48.384;8.984;2023-12-22T10:53:27;5.10;99.90
9371;DHT22;4725;48.384;8.984;2023-12-22T10:55:56;5.20;99.90
9371;DHT22;4725;48.384;8.984;2023-12-22T10:58:23;5.30;99.90
9371;DHT22;4725;48.384;8.984;2023-12-22T11:00:50;5.20;99.90
9371;DHT22;4725;48.384;8.984;2023-12-22T11:03:18;5.20;99.90
9371;DHT22;4725;48.384;8.984;2023-12-22T11:05:51;5.30;99.90
9371;DHT22;4725;48.384;8.984;2023-12-22T11:08:21;5.30;99.90
9371;DHT22;4725;48.384;8.984;2023-12-22T11:10:53;5.30;99.90
9371;DHT22;4725;48.384;8.984;2023-12-22T11:13:23;5.30;99.90
9371;DHT22;4725;48.384;8.984;2023-12-22T11:15:52;5.30;99.90
9371;DHT22;4725;48.384;8.984;2023-12-22T11:18:21;5.30;99.90
9371;DHT22;4725;48.384;8.984;2023-12-22T11:20:48;5.30;99.90
9371;DHT22;4725;48.384;8.984;2023-12-22T11:23:16;5.40;99.90
9371;DHT22;4725;48.384;8.984;2023-12-22T11:25:44;5.40;99.90
9371;DHT22;4725;48.384;8.984;2023-12-22T11:28:17;5.40;99.90
9371;DHT22;4725;48.384;8.984;2023-12-22T11:30:49;5.40;99.90
9371;DHT22;4725;48.384;8.984;2023-12-22T11:33:18;5.50;99.90
9371;DHT22;4725;48.384;8.984;2023-12-22T11:35:46;5.40;99.90
9371;DHT22;4725;48.384;8.984;2023-12-22T11:38:13;5.50;99.90
9371;DHT22;4725;48.384;8.984;2023-12-22T11:40:40;5.40;99.90
9371;DHT22;4725;48.384;8.984;2023-12-22T11:43:07;5.40;99.90
9371;DHT22;4725;48.384;8.984;2023-12-22T11:45:35;5.40;99.90
9371;DHT22;4725;48.384;8.984;2023-12-22T11:48:10;5.50;99.90
9371;DHT22;4725;48.384;8.984;2023-12-22T11:50:37;5.40;99.90
9371;DHT22;4725;48.384;8.984;2023-12-22T11:53:18;5.40;99.90
9371;DHT22;4725;48.384;8.984;2023-12-22T11:55:59;5.50;99.90
9371;DHT22;4725;48.384;8.984;2023-12-22T11:58:36;5.50;99.90
9371;DHT22;4725;48.384;8.984;2023-12-22T12:01:06;5.50;99.90
9371;DHT22;4725;48.384;8.984;2023-12-22T12:03:36;5.50;99.90
9371;DHT22;4725;48.384;8.984;2023-12-22T12:06:14;5.50;99.90
9371;DHT22;4725;48.384;8.984;2023-12-22T12:08:40;5.60;99.90
9371;DHT22;4725;48.384;8.984;2023-12-22T12:11:07;5.60;99.90
9371;DHT22;4725;48.384;8.984;2023-12-22T12:13:34;5.60;99.90
9371;DHT22;4725;48.384;8.984;2023-12-22T12:16:07;5.60;99.90
9371;DHT22;4725;48.384;8.984;2023-12-22T12:18:35;5.70;99.90
9371;DHT22;4725;48.384;8.984;2023-12-22T12:21:02;5.70;99.90
9371;DHT22;4725;48.384;8.984;2023-12-22T12:23:29;5.70;99.90
9371;DHT22;4725;48.384;8.984;2023-12-22T12:25:56;5.70;99.90
9371;DHT22;4725;48.384;8.984;2023-12-22T12:28:28;5.70;99.90
9371;DHT22;4725;48.384;8.984;2023-12-22T12:30:59;5.70;99.90
9371;DHT22;4725;48.384;8.984;2023-12-22T12:33:27;5.70;99.90
9371;DHT22;4725;48.384;8.984;2023-12-22T12:35:57;5.70;99.90
9371;DHT22;4725;48.384;8.984;2023-12-22T12:38:36;5.70;99.90
9371;DHT22;4725;48.384;8.984;2023-12-22T12:41:09;5.70;99.90
9371;DHT22;4725;48.384;8.984;2023-12-22T12:43:41;5.80;99.90
9371;DHT22;4725;48.384;8.984;2023-12-22T12:46:09;5.80;99.90
9371;DHT22;4725;48.384;8.984;2023-12-22T12:48:36;5.80;99.90
9371;DHT22;4725;48.384;8.984;2023-12-22T12:51:05;5.80;99.90
9371;DHT22;4725;48.384;8.984;2023-12-22T12:53:32;5.90;99.90
9371;DHT22;4725;48.384;8.984;2023-12-22T12:56:00;5.90;99.90
9371;DHT22;4725;48.384;8.984;2023-12-22T12:58:28;6.00;99.90
9371;DHT22;4725;48.384;8.984;2023-12-22T13:01:04;6.00;99.90
9371;DHT22;4725;48.384;8.984;2023-12-22T13:06:07;6.00;99.90
9371;DHT22;4725;48.384;8.984;2023-12-22T13:08:34;6.00;99.90
9371;DHT22;4725;48.384;8.984;2023-12-22T13:11:01;6.00;99.90
9371;DHT22;4725;48.384;8.984;2023-12-22T13:13:28;6.10;99.90
9371;DHT22;4725;48.384;8.984;2023-12-22T13:15:55;6.10;99.90
9371;DHT22;4725;48.384;8.984;2023-12-22T13:18:22;6.10;99.90
9371;DHT22;4725;48.384;8.984;2023-12-22T13:20:50;6.20;99.90
9371;DHT22;4725;48.384;8.984;2023-12-22T13:23:18;6.20;99.90
9371;DHT22;4725;48.384;8.984;2023-12-22T13:25:45;6.20;99.90
9371;DHT22;4725;48.384;8.984;2023-12-22T13:28:13;6.20;99.90
9371;DHT22;4725;48.384;8.984;2023-12-22T13:30:40;6.00;99.90
9371;DHT22;4725;48.384;8.984;2023-12-22T13:33:07;6.20;99.90
9371;DHT22;4725;48.384;8.984;2023-12-22T13:35:34;6.20;99.90
9371;DHT22;4725;48.384;8.984;2023-12-22T13:38:02;6.20;99.90
9371;DHT22;4725;48.384;8.984;2023-12-22T13:40:33;6.30;99.90
9371;DHT22;4725;48.384;8.984;2023-12-22T13:43:00;6.30;99.90
9371;DHT22;4725;48.384;8.984;2023-12-22T13:45:27;6.30;99.90
9371;DHT22;4725;48.384;8.984;2023-12-22T13:47:55;6.30;99.90
9371;DHT22;4725;48.384;8.984;2023-12-22T13:50:22;6.40;99.90
9371;DHT22;4725;48.384;8.984;2023-12-22T13:52:49;6.40;99.90
9371;DHT22;4725;48.384;8.984;2023-12-22T13:55:17;6.40;99.90
9371;DHT22;4725;48.384;8.984;2023-12-22T13:57:46;6.40;99.90
9371;DHT22;4725;48.384;8.984;2023-12-22T14:00:26;6.40;99.90
9371;DHT22;4725;48.384;8.984;2023-12-22T14:02:53;6.40;99.90
9371;DHT22;4725;48.384;8.984;2023-12-22T14:05:20;6.50;99.90
9371;DHT22;4725;48.384;8.984;2023-12-22T14:07:48;6.40;99.90
9371;DHT22;4725;48.384;8.984;2023-12-22T14:10:15;6.40;99.90
9371;DHT22;4725;48.384;8.984;2023-12-22T14:12:42;6.40;99.90
9371;DHT22;4725;48.384;8.984;2023-12-22T14:15:11;6.40;99.90
9371;DHT22;4725;48.384;8.984;2023-12-22T14:17:38;6.40;99.90
9371;DHT22;4725;48.384;8.984;2023-12-22T14:20:08;6.40;99.90
9371;DHT22;4725;48.384;8.984;2023-12-22T14:22:35;6.40;99.90
9371;DHT22;4725;48.384;8.984;2023-12-22T14:25:03;6.50;99.90
9371;DHT22;4725;48.384;8.984;2023-12-22T14:27:30;5.80;99.90
9371;DHT22;4725;48.384;8.984;2023-12-22T14:29:56;6.40;99.90
9371;DHT22;4725;48.384;8.984;2023-12-22T14:32:25;6.40;99.90
9371;DHT22;4725;48.384;8.984;2023-12-22T14:34:52;6.40;99.90
9371;DHT22;4725;48.384;8.984;2023-12-22T14:37:18;6.40;99.90
9371;DHT22;4725;48.384;8.984;2023-12-22T14:39:46;6.50;99.90
9371;DHT22;4725;48.384;8.984;2023-12-22T14:42:13;6.50;99.90
9371;DHT22;4725;48.384;8.984;2023-12-22T14:44:40;6.50;99.90
9371;DHT22;4725;48.384;8.984;2023-12-22T14:47:07;6.50;99.90
9371;DHT22;4725;48.384;8.984;2023-12-22T14:49:35;6.50;99.90
9371;DHT22;4725;48.384;8.984;2023-12-22T14:52:02;6.50;99.90
9371;DHT22;4725;48.384;8.984;2023-12-22T14:54:29;9.00;99.90
9371;DHT22;4725;48.384;8.984;2023-12-22T14:56:56;6.50;99.90
9371;DHT22;4725;48.384;8.984;2023-12-22T14:59:23;6.50;99.90
9371;DHT22;4725;48.384;8.984;2023-12-22T15:01:50;6.50;99.90
9371;DHT22;4725;48.384;8.984;2023-12-22T15:04:17;6.50;99.90
9371;DHT22;4725;48.384;8.984;2023-12-22T15:06:46;6.50;99.90
9371;DHT22;4725;48.384;8.984;2023-12-22T15:09:13;6.60;99.90
9371;DHT22;4725;48.384;8.984;2023-12-22T15:11:43;6.60;99.90
9371;DHT22;4725;48.384;8.984;2023-12-22T15:14:10;6.50;99.90
9371;DHT22;4725;48.384;8.984;2023-12-22T15:16:40;6.50;99.90
9371;DHT22;4725;48.384;8.984;2023-12-22T15:19:10;6.60;99.90
9371;DHT22;4725;48.384;8.984;2023-12-22T15:21:37;6.60;99.90
9371;DHT22;4725;48.384;8.984;2023-12-22T15:24:06;6.60;99.90
9371;DHT22;4725;48.384;8.984;2023-12-22T15:26:33;6.60;99.90
9371;DHT22;4725;48.384;8.984;2023-12-22T15:29:01;6.50;99.90
9371;DHT22;4725;48.384;8.984;2023-12-22T15:31:28;6.50;99.90
9371;DHT22;4725;48.384;8.984;2023-12-22T15:33:55;6.50;99.90
9371;DHT22;4725;48.384;8.984;2023-12-22T15:36:22;6.50;99.90
9371;DHT22;4725;48.384;8.984;2023-12-22T15:38:50;6.60;99.90
9371;DHT22;4725;48.384;8.984;2023-12-22T15:41:18;6.60;99.90
9371;DHT22;4725;48.384;8.984;2023-12-22T15:43:45;6.50;99.90
9371;DHT22;4725;48.384;8.984;2023-12-22T15:46:12;6.70;99.90
9371;DHT22;4725;48.384;8.984;2023-12-22T15:48:39;6.60;99.90
9371;DHT22;4725;48.384;8.984;2023-12-22T15:51:06;6.60;99.90
9371;DHT22;4725;48.384;8.984;2023-12-22T15:53:33;6.60;99.90
9371;DHT22;4725;48.384;8.984;2023-12-22T15:56:04;6.70;99.90
9371;DHT22;4725;48.384;8.984;2023-12-22T15:58:33;6.60;99.90
9371;DHT22;4725;48.384;8.984;2023-12-22T16:01:00;6.50;99.90
9371;DHT22;4725;48.384;8.984;2023-12-22T16:03:28;6.50;99.90
9371;DHT22;4725;48.384;8.984;2023-12-22T16:05:54;6.50;99.90
9371;DHT22;4725;48.384;8.984;2023-12-22T16:08:21;6.50;99.90
9371;DHT22;4725;48.384;8.984;2023-12-22T16:10:48;6.50;99.90
9371;DHT22;4725;48.384;8.984;2023-12-22T16:15:44;6.50;99.90
9371;DHT22;4725;48.384;8.984;2023-12-22T16:18:11;6.50;99.90
9371;DHT22;4725;48.384;8.984;2023-12-22T16:20:38;6.40;99.90
9371;DHT22;4725;48.384;8.984;2023-12-22T16:23:05;6.40;99.90
9371;DHT22;4725;48.384;8.984;2023-12-22T16:25:32;6.50;99.90
9371;DHT22;4725;48.384;8.984;2023-12-22T16:27:59;6.40;99.90
9371;DHT22;4725;48.384;8.984;2023-12-22T16:30:26;6.40;99.90
9371;DHT22;4725;48.384;8.984;2023-12-22T16:32:54;6.50;99.90